sensor_id;sensor_type;location;lat;lon;timestamp;pressure;altitude;pressure_sealevel;temperature;humidity
29197;BME280;62796;42.654;23.316;2023-06-26T00:00:12;94388.63;;;21.68;62.74
29197;BME280;62796;42.654;23.316;2023-06-26T00:02:37;94392.56;;;21.65;63.05
29197;BME280;62796;42.654;23.316;2023-06-26T00:05:04;94392.19;;;21.68;63.05
29197;BME280;62796;42.654;23.316;2023-06-26T00:07:30;94397.81;;;21.76;62.79
29197;BME280;62796;42.654;23.316;2023-06-26T00:09:57;94384.31;;;21.74;62.78
29197;BME280;62796;42.654;23.316;2023-06-26T00:12:23;94386.53;;;21.76;62.90
29197;BME280;62796;42.654;23.316;2023-06-26T00:14:49;94381.66;;;21.69;63.04
29197;BME280;62796;42.654;23.316;2023-06-26T00:17:14;94395.16;;;21.63;63.35
29197;BME280;62796;42.654;23.316;2023-06-26T00:19:39;94397.06;;;21.68;63.22
29197;BME280;62796;42.654;23.316;2023-06-26T00:22:05;94397.44;;;21.72;63.04
29197;BME280;62796;42.654;23.316;2023-06-26T00:24:30;94391.03;;;21.64;63.14
29197;BME280;62796;42.654;23.316;2023-06-26T00:26:56;94391.03;;;21.64;63.30
29197;BME280;62796;42.654;23.316;2023-06-26T00:29:21;94386.16;;;21.64;63.28
29197;BME280;62796;42.654;23.316;2023-06-26T00:31:47;94391.97;;;21.66;63.14
29197;BME280;62796;42.654;23.316;2023-06-26T00:34:12;94385.56;;;21.50;63.77
29197;BME280;62796;42.654;23.316;2023-06-26T00:36:37;94375.06;;;21.43;63.78
29197;BME280;62796;42.654;23.316;2023-06-26T00:39:03;94382.38;;;21.46;63.79
29197;BME280;62796;42.654;23.316;2023-06-26T00:41:29;94379.19;;;21.50;63.77
29197;BME280;62796;42.654;23.316;2023-06-26T00:43:54;94376.00;;;21.38;64.06
29197;BME280;62796;42.654;23.316;2023-06-26T00:46:20;94380.47;;;21.41;64.02
29197;BME280;62796;42.654;23.316;2023-06-26T00:48:46;94383.50;;;21.51;63.52
29197;BME280;62796;42.654;23.316;2023-06-26T00:51:13;94374.50;;;21.52;63.65
29197;BME280;62796;42.654;23.316;2023-06-26T00:53:39;94386.13;;;21.41;63.68
29197;BME280;62796;42.654;23.316;2023-06-26T00:56:05;94377.47;;;21.39;63.95
29197;BME280;62796;42.654;23.316;2023-06-26T00:58:31;94377.47;;;21.39;64.04
29197;BME280;62796;42.654;23.316;2023-06-26T01:00:57;94368.25;;;21.39;63.84
29197;BME280;62796;42.654;23.316;2023-06-26T01:03:24;94367.53;;;21.38;64.03
29197;BME280;62796;42.654;23.316;2023-06-26T01:05:51;94363.22;;;21.37;64.06
29197;BME280;62796;42.654;23.316;2023-06-26T01:08:17;94362.44;;;21.37;63.87
29197;BME280;62796;42.654;23.316;2023-06-26T01:10:43;94347.63;;;21.29;64.12
29197;BME280;62796;42.654;23.316;2023-06-26T01:13:09;94352.84;;;21.17;64.57
29197;BME280;62796;42.654;23.316;2023-06-26T01:15:34;94345.13;;;21.10;64.82
29197;BME280;62796;42.654;23.316;2023-06-26T01:18:00;94350.03;;;21.17;64.55
29197;BME280;62796;42.654;23.316;2023-06-26T01:20:35;94345.50;;;21.14;64.69
29197;BME280;62796;42.654;23.316;2023-06-26T01:23:07;94341.38;;;21.15;64.59
29197;BME280;62796;42.654;23.316;2023-06-26T01:28:04;94346.47;;;21.24;64.09
29197;BME280;62796;42.654;23.316;2023-06-26T01:30:31;94344.22;;;21.23;64.13
29197;BME280;62796;42.654;23.316;2023-06-26T01:32:58;94334.28;;;21.29;63.79
29197;BME280;62796;42.654;23.316;2023-06-26T01:35:24;94335.97;;;21.32;63.33
29197;BME280;62796;42.654;23.316;2023-06-26T01:37:50;94338.41;;;21.36;63.30
29197;BME280;62796;42.654;23.316;2023-06-26T01:40:15;94332.59;;;21.34;63.34
29197;BME280;62796;42.654;23.316;2023-06-26T01:42:41;94332.78;;;21.28;63.40
29197;BME280;62796;42.654;23.316;2023-06-26T01:45:24;94339.91;;;21.29;63.56
29197;BME280;62796;42.654;23.316;2023-06-26T01:47:52;94328.63;;;21.22;63.50
29197;BME280;62796;42.654;23.316;2023-06-26T01:50:26;94313.22;;;21.15;63.47
29197;BME280;62796;42.654;23.316;2023-06-26T01:53:17;94333.13;;;21.17;63.49
29197;BME280;62796;42.654;23.316;2023-06-26T01:56:00;94324.81;;;21.04;63.98
29197;BME280;62796;42.654;23.316;2023-06-26T01:58:27;94322.41;;;21.08;63.83
29197;BME280;62796;42.654;23.316;2023-06-26T02:00:53;94314.66;;;21.01;63.75
29197;BME280;62796;42.654;23.316;2023-06-26T02:03:18;94321.81;;;21.02;63.76
29197;BME280;62796;42.654;23.316;2023-06-26T02:05:45;94331.94;;;21.05;63.49
29197;BME280;62796;42.654;23.316;2023-06-26T02:08:13;94331.44;;;20.71;64.55
29197;BME280;62796;42.654;23.316;2023-06-26T02:10:39;94332.56;;;20.68;64.79
29197;BME280;62796;42.654;23.316;2023-06-26T02:13:04;94332.63;;;20.83;64.27
29197;BME280;62796;42.654;23.316;2023-06-26T02:15:29;94328.28;;;20.67;64.64
29197;BME280;62796;42.654;23.316;2023-06-26T02:17:55;94326.03;;;20.37;65.19
29197;BME280;62796;42.654;23.316;2023-06-26T02:20:20;94331.38;;;20.56;64.89
29197;BME280;62796;42.654;23.316;2023-06-26T02:22:45;94335.56;;;20.70;64.29
29197;BME280;62796;42.654;23.316;2023-06-26T02:25:11;94330.75;;;20.78;63.63
29197;BME280;62796;42.654;23.316;2023-06-26T02:27:38;94332.97;;;20.72;64.15
29197;BME280;62796;42.654;23.316;2023-06-26T02:30:03;94332.22;;;20.79;63.98
29197;BME280;62796;42.654;23.316;2023-06-26T02:32:29;94339.94;;;20.86;63.68
29197;BME280;62796;42.654;23.316;2023-06-26T02:34:54;94339.03;;;20.91;63.60
29197;BME280;62796;42.654;23.316;2023-06-26T02:37:20;94333.78;;;20.95;63.52
29197;BME280;62796;42.654;23.316;2023-06-26T02:39:45;94335.09;;;20.94;63.60
29197;BME280;62796;42.654;23.316;2023-06-26T02:42:11;94333.78;;;20.95;63.65
29197;BME280;62796;42.654;23.316;2023-06-26T02:44:36;94331.94;;;21.05;63.37
29197;BME280;62796;42.654;23.316;2023-06-26T02:47:01;94332.88;;;21.08;63.36
29197;BME280;62796;42.654;23.316;2023-06-26T02:49:27;94333.06;;;21.02;63.15
29197;BME280;62796;42.654;23.316;2023-06-26T02:51:52;94335.72;;;21.08;63.11
29197;BME280;62796;42.654;23.316;2023-06-26T02:54:17;94332.88;;;21.08;63.15
29197;BME280;62796;42.654;23.316;2023-06-26T02:56:43;94326.84;;;20.96;63.31
29197;BME280;62796;42.654;23.316;2023-06-26T02:59:08;94337.75;;;21.00;63.31
29197;BME280;62796;42.654;23.316;2023-06-26T03:01:33;94338.88;;;21.04;62.99
29197;BME280;62796;42.654;23.316;2023-06-26T03:04:00;94336.06;;;21.04;62.88
29197;BME280;62796;42.654;23.316;2023-06-26T03:06:28;94332.69;;;21.06;63.04
29197;BME280;62796;42.654;23.316;2023-06-26T03:08:54;94340.81;;;21.17;62.46
29197;BME280;62796;42.654;23.316;2023-06-26T03:11:19;94346.63;;;21.11;62.52
29197;BME280;62796;42.654;23.316;2023-06-26T03:13:45;94347.94;;;21.18;62.25
29197;BME280;62796;42.654;23.316;2023-06-26T03:16:10;94350.22;;;21.19;62.27
29197;BME280;62796;42.654;23.316;2023-06-26T03:18:36;94344.00;;;21.13;62.05
29197;BME280;62796;42.654;23.316;2023-06-26T03:21:01;94338.47;;;21.00;62.24
29197;BME280;62796;42.654;23.316;2023-06-26T03:23:27;94351.84;;;21.07;62.22
29197;BME280;62796;42.654;23.316;2023-06-26T03:25:53;94344.00;;;21.13;62.12
29197;BME280;62796;42.654;23.316;2023-06-26T03:28:18;94349.16;;;20.94;62.79
29197;BME280;62796;42.654;23.316;2023-06-26T03:30:44;94344.09;;;20.92;62.70
29197;BME280;62796;42.654;23.316;2023-06-26T03:33:09;94341.13;;;20.98;62.37
29197;BME280;62796;42.654;23.316;2023-06-26T03:35:35;94355.31;;;20.85;62.90
29197;BME280;62796;42.654;23.316;2023-06-26T03:38:01;94345.75;;;20.88;62.71
29197;BME280;62796;42.654;23.316;2023-06-26T03:40:26;94356.66;;;20.91;62.71
29197;BME280;62796;42.654;23.316;2023-06-26T03:42:52;94352.91;;;20.81;63.04
29197;BME280;62796;42.654;23.316;2023-06-26T03:45:17;94351.63;;;20.90;62.93
29197;BME280;62796;42.654;23.316;2023-06-26T03:47:44;94351.78;;;20.92;62.63
29197;BME280;62796;42.654;23.316;2023-06-26T03:50:12;94341.69;;;20.96;62.69
29197;BME280;62796;42.654;23.316;2023-06-26T03:52:37;94352.91;;;20.89;62.70
29197;BME280;62796;42.654;23.316;2023-06-26T03:55:03;94354.03;;;20.86;63.12
29197;BME280;62796;42.654;23.316;2023-06-26T03:57:28;94351.03;;;20.91;62.83
29197;BME280;62796;42.654;23.316;2023-06-26T03:59:54;94346.28;;;20.71;63.19
29197;BME280;62796;42.654;23.316;2023-06-26T04:02:19;94349.50;;;20.75;63.45
29197;BME280;62796;42.654;23.316;2023-06-26T04:04:44;94354.75;;;20.79;63.29
29197;BME280;62796;42.654;23.316;2023-06-26T04:07:10;94353.25;;;20.78;63.39
29197;BME280;62796;42.654;23.316;2023-06-26T04:09:35;94355.84;;;20.76;63.37
29197;BME280;62796;42.654;23.316;2023-06-26T04:12:01;94348.28;;;20.56;64.14
29197;BME280;62796;42.654;23.316;2023-06-26T04:14:26;94348.59;;;20.45;64.31
29197;BME280;62796;42.654;23.316;2023-06-26T04:16:52;94345.66;;;20.58;63.96
29197;BME280;62796;42.654;23.316;2023-06-26T04:19:17;94347.41;;;20.76;63.47
29197;BME280;62796;42.654;23.316;2023-06-26T04:21:43;94340.66;;;20.79;62.99
29197;BME280;62796;42.654;23.316;2023-06-26T04:24:08;94359.31;;;20.97;62.90
29197;BME280;62796;42.654;23.316;2023-06-26T04:26:34;94350.75;;;21.10;62.20
29197;BME280;62796;42.654;23.316;2023-06-26T04:28:59;94345.97;;;20.90;62.37
29197;BME280;62796;42.654;23.316;2023-06-26T04:31:25;94338.97;;;20.76;62.80
29197;BME280;62796;42.654;23.316;2023-06-26T04:33:50;94354.03;;;20.86;62.83
29197;BME280;62796;42.654;23.316;2023-06-26T04:36:19;94352.56;;;21.00;62.51
29197;BME280;62796;42.654;23.316;2023-06-26T04:38:44;94353.78;;;21.20;61.79
29197;BME280;62796;42.654;23.316;2023-06-26T04:41:10;94356.78;;;21.14;62.14
29197;BME280;62796;42.654;23.316;2023-06-26T04:43:35;94353.00;;;21.12;62.14
29197;BME280;62796;42.654;23.316;2023-06-26T04:46:02;94349.91;;;20.87;62.91
29197;BME280;62796;42.654;23.316;2023-06-26T04:48:28;94359.97;;;21.18;62.02
29197;BME280;62796;42.654;23.316;2023-06-26T04:50:54;94363.56;;;21.26;61.73
29197;BME280;62796;42.654;23.316;2023-06-26T04:53:22;94372.97;;;21.36;61.54
29197;BME280;62796;42.654;23.316;2023-06-26T04:55:49;94363.22;;;21.52;61.30
29197;BME280;62796;42.654;23.316;2023-06-26T04:58:14;94354.22;;;21.62;61.39
29197;BME280;62796;42.654;23.316;2023-06-26T05:00:40;94356.28;;;21.69;60.76
29197;BME280;62796;42.654;23.316;2023-06-26T05:03:09;94356.09;;;21.82;60.11
29197;BME280;62796;42.654;23.316;2023-06-26T05:05:34;94360.63;;;22.00;59.91
29197;BME280;62796;42.654;23.316;2023-06-26T05:08:13;94358.00;;;22.02;59.84
29197;BME280;62796;42.654;23.316;2023-06-26T05:10:38;94360.63;;;22.08;59.43
29197;BME280;62796;42.654;23.316;2023-06-26T05:13:04;94358.19;;;22.04;59.65
29197;BME280;62796;42.654;23.316;2023-06-26T05:15:29;94377.53;;;22.15;58.91
29197;BME280;62796;42.654;23.316;2023-06-26T05:17:54;94376.03;;;22.14;58.72
29197;BME280;62796;42.654;23.316;2023-06-26T05:20:20;94373.78;;;22.13;58.88
29197;BME280;62796;42.654;23.316;2023-06-26T05:22:45;94380.16;;;22.28;58.84
29197;BME280;62796;42.654;23.316;2023-06-26T05:25:11;94382.38;;;22.37;58.20
29197;BME280;62796;42.654;23.316;2023-06-26T05:27:37;94380.53;;;22.32;58.68
29197;BME280;62796;42.654;23.316;2023-06-26T05:30:03;94373.38;;;22.31;58.83
29197;BME280;62796;42.654;23.316;2023-06-26T05:32:30;94382.38;;;22.37;58.74
29197;BME280;62796;42.654;23.316;2023-06-26T05:34:57;94374.00;;;21.92;59.54
29197;BME280;62796;42.654;23.316;2023-06-26T05:37:24;94382.22;;;21.75;60.48
29197;BME280;62796;42.654;23.316;2023-06-26T05:39:51;94377.91;;;21.59;61.02
29197;BME280;62796;42.654;23.316;2023-06-26T05:42:17;94390.31;;;21.71;60.97
29197;BME280;62796;42.654;23.316;2023-06-26T05:44:42;94378.28;;;21.85;60.40
29197;BME280;62796;42.654;23.316;2023-06-26T05:47:08;94384.53;;;21.91;60.30
29197;BME280;62796;42.654;23.316;2023-06-26T05:49:34;94374.56;;;21.98;60.06
29197;BME280;62796;42.654;23.316;2023-06-26T05:51:59;94385.63;;;22.11;59.93
29197;BME280;62796;42.654;23.316;2023-06-26T05:54:25;94392.56;;;22.25;59.63
29197;BME280;62796;42.654;23.316;2023-06-26T05:56:57;94386.56;;;22.36;58.63
29197;BME280;62796;42.654;23.316;2023-06-26T05:59:24;94384.28;;;22.42;58.46
29197;BME280;62796;42.654;23.316;2023-06-26T06:01:51;94392.53;;;22.48;57.93
29197;BME280;62796;42.654;23.316;2023-06-26T06:04:17;94402.53;;;22.49;57.76
29197;BME280;62796;42.654;23.316;2023-06-26T06:06:42;94392.88;;;22.75;56.90
29197;BME280;62796;42.654;23.316;2023-06-26T06:09:08;94382.06;;;22.96;56.28
29197;BME280;62796;42.654;23.316;2023-06-26T06:11:33;94393.53;;;22.98;56.25
29197;BME280;62796;42.654;23.316;2023-06-26T06:13:59;94393.03;;;23.24;55.89
29197;BME280;62796;42.654;23.316;2023-06-26T06:16:25;94385.03;;;23.45;54.83
29197;BME280;62796;42.654;23.316;2023-06-26T06:18:50;94379.03;;;23.74;53.61
29197;BME280;62796;42.654;23.316;2023-06-26T06:21:16;94389.53;;;23.81;53.57
29197;BME280;62796;42.654;23.316;2023-06-26T06:23:41;94390.75;;;23.95;52.38
29197;BME280;62796;42.654;23.316;2023-06-26T06:26:07;94387.09;;;24.02;52.27
29197;BME280;62796;42.654;23.316;2023-06-26T06:28:32;94375.22;;;24.03;51.79
29197;BME280;62796;42.654;23.316;2023-06-26T06:30:57;94383.09;;;24.05;51.99
29197;BME280;62796;42.654;23.316;2023-06-26T06:33:23;94381.94;;;24.08;52.29
29197;BME280;62796;42.654;23.316;2023-06-26T06:35:48;94384.97;;;24.10;52.15
29197;BME280;62796;42.654;23.316;2023-06-26T06:38:14;94382.69;;;24.16;51.78
29197;BME280;62796;42.654;23.316;2023-06-26T06:40:39;94387.34;;;24.21;51.81
29197;BME280;62796;42.654;23.316;2023-06-26T06:43:04;94373.72;;;24.27;51.86
29197;BME280;62796;42.654;23.316;2023-06-26T06:45:30;94384.22;;;24.34;52.10
29197;BME280;62796;42.654;23.316;2023-06-26T06:47:55;94378.38;;;24.32;52.42
29197;BME280;62796;42.654;23.316;2023-06-26T06:50:20;94378.44;;;24.00;52.82
29197;BME280;62796;42.654;23.316;2023-06-26T06:52:46;94374.47;;;23.78;53.24
29197;BME280;62796;42.654;23.316;2023-06-26T06:55:11;94375.72;;;23.85;52.55
29197;BME280;62796;42.654;23.316;2023-06-26T06:57:38;94382.94;;;24.03;51.97
29197;BME280;62796;42.654;23.316;2023-06-26T07:00:05;94379.72;;;24.06;52.41
29197;BME280;62796;42.654;23.316;2023-06-26T07:02:37;94378.56;;;24.09;51.23
29197;BME280;62796;42.654;23.316;2023-06-26T07:05:04;94368.81;;;24.03;51.46
29197;BME280;62796;42.654;23.316;2023-06-26T07:07:31;94377.19;;;24.18;51.39
29197;BME280;62796;42.654;23.316;2023-06-26T07:10:02;94374.53;;;24.37;50.70
29197;BME280;62796;42.654;23.316;2023-06-26T07:12:28;94374.66;;;24.64;50.30
29197;BME280;62796;42.654;23.316;2023-06-26T07:14:54;94372.25;;;24.77;49.82
29197;BME280;62796;42.654;23.316;2023-06-26T07:17:20;94364.63;;;24.88;49.28
29197;BME280;62796;42.654;23.316;2023-06-26T07:19:46;94361.03;;;24.87;48.87
29197;BME280;62796;42.654;23.316;2023-06-26T07:22:12;94376.59;;;24.96;48.33
29197;BME280;62796;42.654;23.316;2023-06-26T07:24:37;94351.59;;;25.02;47.40
29197;BME280;62796;42.654;23.316;2023-06-26T07:27:03;94366.75;;;25.41;47.76
29197;BME280;62796;42.654;23.316;2023-06-26T07:29:28;94363.00;;;25.55;47.05
29197;BME280;62796;42.654;23.316;2023-06-26T07:31:53;94362.13;;;25.62;47.03
29197;BME280;62796;42.654;23.316;2023-06-26T07:34:19;94371.75;;;25.76;46.64
29197;BME280;62796;42.654;23.316;2023-06-26T07:36:44;94378.25;;;25.96;46.36
29197;BME280;62796;42.654;23.316;2023-06-26T07:39:10;94372.13;;;26.00;46.48
29197;BME280;62796;42.654;23.316;2023-06-26T07:41:35;94365.59;;;26.07;45.50
29197;BME280;62796;42.654;23.316;2023-06-26T07:44:01;94368.59;;;26.09;45.94
29197;BME280;62796;42.654;23.316;2023-06-26T07:46:26;94367.50;;;26.31;45.01
29197;BME280;62796;42.654;23.316;2023-06-26T07:48:51;94372.91;;;26.46;41.97
29197;BME280;62796;42.654;23.316;2023-06-26T07:51:17;94369.34;;;26.55;41.41
29197;BME280;62796;42.654;23.316;2023-06-26T07:53:43;94369.03;;;26.70;41.31
29197;BME280;62796;42.654;23.316;2023-06-26T07:56:08;94374.59;;;26.78;41.60
29197;BME280;62796;42.654;23.316;2023-06-26T07:58:33;94365.59;;;26.62;42.53
29197;BME280;62796;42.654;23.316;2023-06-26T08:00:59;94371.59;;;26.76;42.55
29197;BME280;62796;42.654;23.316;2023-06-26T08:03:24;94373.72;;;26.85;41.44
29197;BME280;62796;42.654;23.316;2023-06-26T08:05:50;94372.38;;;26.96;41.39
29197;BME280;62796;42.654;23.316;2023-06-26T08:08:15;94371.31;;;27.01;40.90
29197;BME280;62796;42.654;23.316;2023-06-26T08:10:40;94370.59;;;26.90;40.79
29197;BME280;62796;42.654;23.316;2023-06-26T08:13:06;94369.09;;;27.09;41.00
29197;BME280;62796;42.654;23.316;2023-06-26T08:15:31;94369.38;;;27.03;40.39
29197;BME280;62796;42.654;23.316;2023-06-26T08:17:57;94363.41;;;27.09;40.39
29197;BME280;62796;42.654;23.316;2023-06-26T08:20:22;94359.81;;;27.18;40.35
29197;BME280;62796;42.654;23.316;2023-06-26T08:22:48;94364.44;;;27.23;40.09
29197;BME280;62796;42.654;23.316;2023-06-26T08:25:15;94349.63;;;26.96;39.86
29197;BME280;62796;42.654;23.316;2023-06-26T08:27:41;94360.69;;;26.91;39.88
29197;BME280;62796;42.654;23.316;2023-06-26T08:30:07;94377.28;;;26.76;40.65
29197;BME280;62796;42.654;23.316;2023-06-26T08:32:32;94375.31;;;26.59;41.18
29197;BME280;62796;42.654;23.316;2023-06-26T08:34:58;94358.41;;;26.52;41.91
29197;BME280;62796;42.654;23.316;2023-06-26T08:37:24;94366.38;;;26.72;41.90
29197;BME280;62796;42.654;23.316;2023-06-26T08:39:49;94371.16;;;26.70;42.79
29197;BME280;62796;42.654;23.316;2023-06-26T08:42:14;94367.25;;;26.65;42.75
29197;BME280;62796;42.654;23.316;2023-06-26T08:44:40;94368.44;;;26.62;42.03
29197;BME280;62796;42.654;23.316;2023-06-26T08:47:06;94364.28;;;26.82;41.23
29197;BME280;62796;42.654;23.316;2023-06-26T08:49:42;94371.19;;;27.18;41.59
29197;BME280;62796;42.654;23.316;2023-06-26T08:52:22;94373.09;;;27.34;40.10
29197;BME280;62796;42.654;23.316;2023-06-26T08:54:54;94361.72;;;27.15;39.59
29197;BME280;62796;42.654;23.316;2023-06-26T08:57:22;94370.44;;;26.98;40.11
29197;BME280;62796;42.654;23.316;2023-06-26T08:59:48;94370.53;;;26.71;40.52
29197;BME280;62796;42.654;23.316;2023-06-26T09:02:14;94366.25;;;26.89;40.02
29197;BME280;62796;42.654;23.316;2023-06-26T09:04:40;94353.53;;;26.90;39.62
29197;BME280;62796;42.654;23.316;2023-06-26T09:07:07;94364.00;;;26.98;39.57
29197;BME280;62796;42.654;23.316;2023-06-26T09:09:32;94363.53;;;27.20;40.15
29197;BME280;62796;42.654;23.316;2023-06-26T09:11:58;94360.69;;;27.30;40.27
29197;BME280;62796;42.654;23.316;2023-06-26T09:14:23;94366.69;;;27.15;40.58
29197;BME280;62796;42.654;23.316;2023-06-26T09:16:49;94357.56;;;27.07;40.26
29197;BME280;62796;42.654;23.316;2023-06-26T09:19:15;94361.28;;;27.38;40.66
29197;BME280;62796;42.654;23.316;2023-06-26T09:21:42;94364.25;;;27.59;40.69
29197;BME280;62796;42.654;23.316;2023-06-26T09:24:09;94360.34;;;27.64;39.44
29197;BME280;62796;42.654;23.316;2023-06-26T09:26:39;94361.25;;;27.57;39.23
29197;BME280;62796;42.654;23.316;2023-06-26T09:29:05;94354.16;;;27.77;37.45
29197;BME280;62796;42.654;23.316;2023-06-26T09:31:32;94357.53;;;28.05;37.15
29197;BME280;62796;42.654;23.316;2023-06-26T09:33:59;94358.09;;;28.13;37.55
29197;BME280;62796;42.654;23.316;2023-06-26T09:36:29;94355.69;;;27.99;38.21
29197;BME280;62796;42.654;23.316;2023-06-26T09:39:07;94363.41;;;27.87;38.75
29197;BME280;62796;42.654;23.316;2023-06-26T09:41:43;94356.00;;;28.03;37.98
29197;BME280;62796;42.654;23.316;2023-06-26T09:44:11;94355.19;;;28.22;37.30
29197;BME280;62796;42.654;23.316;2023-06-26T09:46:38;94342.00;;;28.17;36.93
29197;BME280;62796;42.654;23.316;2023-06-26T09:49:05;94357.00;;;27.77;36.81
29197;BME280;62796;42.654;23.316;2023-06-26T09:51:31;94356.72;;;27.73;36.39
29197;BME280;62796;42.654;23.316;2023-06-26T09:54:01;94360.41;;;27.85;36.74
29197;BME280;62796;42.654;23.316;2023-06-26T09:56:27;94354.06;;;28.06;36.13
29197;BME280;62796;42.654;23.316;2023-06-26T09:58:55;94350.13;;;28.11;35.73
29197;BME280;62796;42.654;23.316;2023-06-26T10:01:22;94350.88;;;28.12;35.53
29197;BME280;62796;42.654;23.316;2023-06-26T10:03:48;94360.31;;;28.14;35.80
29197;BME280;62796;42.654;23.316;2023-06-26T10:06:14;94355.44;;;28.26;35.44
29197;BME280;62796;42.654;23.316;2023-06-26T10:08:42;94349.38;;;28.41;35.27
29197;BME280;62796;42.654;23.316;2023-06-26T10:11:12;94354.38;;;28.00;35.85
29197;BME280;62796;42.654;23.316;2023-06-26T10:13:42;94347.91;;;28.10;35.35
29197;BME280;62796;42.654;23.316;2023-06-26T10:16:11;94342.88;;;28.20;34.65
29197;BME280;62796;42.654;23.316;2023-06-26T10:18:39;94341.63;;;28.32;34.89
29197;BME280;62796;42.654;23.316;2023-06-26T10:21:06;94341.97;;;28.27;35.15
29197;BME280;62796;42.654;23.316;2023-06-26T10:23:33;94344.53;;;28.23;34.75
29197;BME280;62796;42.654;23.316;2023-06-26T10:26:00;94342.06;;;28.08;35.45
29197;BME280;62796;42.654;23.316;2023-06-26T10:28:28;94338.56;;;28.19;35.66
29197;BME280;62796;42.654;23.316;2023-06-26T10:30:57;94343.09;;;28.02;35.36
29197;BME280;62796;42.654;23.316;2023-06-26T10:33:24;94349.13;;;28.07;35.35
29197;BME280;62796;42.654;23.316;2023-06-26T10:35:49;94343.72;;;28.01;34.94
29197;BME280;62796;42.654;23.316;2023-06-26T10:38:15;94355.94;;;27.82;34.61
29197;BME280;62796;42.654;23.316;2023-06-26T10:40:45;94349.91;;;27.38;35.98
29197;BME280;62796;42.654;23.316;2023-06-26T10:43:15;94344.97;;;27.29;36.30
29197;BME280;62796;42.654;23.316;2023-06-26T10:45:49;94341.38;;;27.28;34.65
29197;BME280;62796;42.654;23.316;2023-06-26T10:48:19;94346.19;;;27.16;35.27
29197;BME280;62796;42.654;23.316;2023-06-26T10:50:49;94343.19;;;27.14;35.80
29197;BME280;62796;42.654;23.316;2023-06-26T10:55:57;94339.31;;;27.10;35.80
29197;BME280;62796;42.654;23.316;2023-06-26T11:03:38;94325.72;;;26.99;37.39
29197;BME280;62796;42.654;23.316;2023-06-26T11:06:14;94332.59;;;27.15;37.91
29197;BME280;62796;42.654;23.316;2023-06-26T11:08:54;94333.47;;;27.27;37.20
29197;BME280;62796;42.654;23.316;2023-06-26T11:11:21;94331.94;;;27.35;37.48
29197;BME280;62796;42.654;23.316;2023-06-26T11:13:47;94324.13;;;27.36;37.98
29197;BME280;62796;42.654;23.316;2023-06-26T11:16:14;94327.75;;;27.46;37.08
29197;BME280;62796;42.654;23.316;2023-06-26T11:18:42;94326.66;;;27.51;36.08
29197;BME280;62796;42.654;23.316;2023-06-26T11:21:08;94333.72;;;27.50;35.71
29197;BME280;62796;42.654;23.316;2023-06-26T11:23:36;94329.16;;;27.66;36.55
29197;BME280;62796;42.654;23.316;2023-06-26T11:26:20;94330.03;;;28.19;35.52
29197;BME280;62796;42.654;23.316;2023-06-26T11:28:53;94330.19;;;28.42;34.71
29197;BME280;62796;42.654;23.316;2023-06-26T11:31:37;94323.53;;;28.28;34.59
29197;BME280;62796;42.654;23.316;2023-06-26T11:34:07;94329.31;;;28.09;34.28
29197;BME280;62796;42.654;23.316;2023-06-26T11:36:37;94329.78;;;28.05;34.52
29197;BME280;62796;42.654;23.316;2023-06-26T11:39:05;94328.75;;;28.00;34.50
29197;BME280;62796;42.654;23.316;2023-06-26T11:41:35;94322.00;;;27.96;34.28
29197;BME280;62796;42.654;23.316;2023-06-26T11:44:05;94331.03;;;27.92;34.19
29197;BME280;62796;42.654;23.316;2023-06-26T11:46:32;94319.69;;;27.83;34.14
29197;BME280;62796;42.654;23.316;2023-06-26T11:48:59;94324.00;;;27.84;34.57
29197;BME280;62796;42.654;23.316;2023-06-26T11:51:26;94324.91;;;27.86;34.86
29197;BME280;62796;42.654;23.316;2023-06-26T11:53:52;94322.28;;;27.69;35.68
29197;BME280;62796;42.654;23.316;2023-06-26T11:56:18;94323.25;;;27.53;35.77
29197;BME280;62796;42.654;23.316;2023-06-26T12:01:46;94323.88;;;27.82;35.27
29197;BME280;62796;42.654;23.316;2023-06-26T12:04:15;94305.41;;;27.92;34.78
29197;BME280;62796;42.654;23.316;2023-06-26T12:06:47;94307.88;;;28.08;34.43
29197;BME280;62796;42.654;23.316;2023-06-26T12:09:13;94306.91;;;28.24;34.64
29197;BME280;62796;42.654;23.316;2023-06-26T12:11:43;94312.41;;;28.32;35.13
29197;BME280;62796;42.654;23.316;2023-06-26T12:14:10;94317.78;;;28.37;33.29
29197;BME280;62796;42.654;23.316;2023-06-26T12:16:36;94306.28;;;28.26;33.66
29197;BME280;62796;42.654;23.316;2023-06-26T12:19:06;94305.47;;;28.35;34.00
29197;BME280;62796;42.654;23.316;2023-06-26T12:21:45;94308.97;;;28.33;34.19
29197;BME280;62796;42.654;23.316;2023-06-26T12:24:19;94312.47;;;28.43;34.18
29197;BME280;62796;42.654;23.316;2023-06-26T12:26:47;94307.28;;;28.40;33.28
29197;BME280;62796;42.654;23.316;2023-06-26T12:29:14;94314.84;;;28.47;33.40
29197;BME280;62796;42.654;23.316;2023-06-26T12:31:48;94305.63;;;28.16;34.03
29197;BME280;62796;42.654;23.316;2023-06-26T12:34:15;94309.72;;;28.34;33.89
29197;BME280;62796;42.654;23.316;2023-06-26T12:36:48;94313.78;;;28.52;33.37
29197;BME280;62796;42.654;23.316;2023-06-26T12:39:19;94304.00;;;28.34;33.64
29197;BME280;62796;42.654;23.316;2023-06-26T12:41:49;94309.31;;;28.49;34.04
29197;BME280;62796;42.654;23.316;2023-06-26T12:44:25;94312.91;;;28.71;33.56
29197;BME280;62796;42.654;23.316;2023-06-26T12:46:55;94310.69;;;28.69;34.02
29197;BME280;62796;42.654;23.316;2023-06-26T12:49:20;94313.06;;;28.73;33.99
29197;BME280;62796;42.654;23.316;2023-06-26T12:51:53;94310.97;;;28.73;34.43
29197;BME280;62796;42.654;23.316;2023-06-26T12:54:19;94311.06;;;28.54;35.11
29197;BME280;62796;42.654;23.316;2023-06-26T12:56:45;94305.38;;;28.54;34.63
29197;BME280;62796;42.654;23.316;2023-06-26T12:59:10;94303.31;;;28.45;34.69
29197;BME280;62796;42.654;23.316;2023-06-26T13:01:35;94312.34;;;28.41;35.68